sensor_id;sensor_type;location;lat;lon;timestamp;temperature;humidity
28193;DHT22;15473;50.840;3.396;2023-02-20T00:01:21;6.60;99.90
28193;DHT22;15473;50.840;3.396;2023-02-20T00:03:52;6.60;99.90
28193;DHT22;15473;50.840;3.396;2023-02-20T00:06:21;6.60;99.90
28193;DHT22;15473;50.840;3.396;2023-02-20T00:08:51;6.70;99.90
28193;DHT22;15473;50.840;3.396;2023-02-20T00:11:22;6.70;99.90
28193;DHT22;15473;50.840;3.396;2023-02-20T00:13:54;6.70;99.90
28193;DHT22;15473;50.840;3.396;2023-02-20T00:16:27;6.80;99.90
28193;DHT22;15473;50.840;3.396;2023-02-20T00:19:03;6.80;99.90
28193;DHT22;15473;50.840;3.396;2023-02-20T00:21:46;6.80;99.90
28193;DHT22;15473;50.840;3.396;2023-02-20T00:24:15;6.80;99.90
28193;DHT22;15473;50.840;3.396;2023-02-20T00:26:45;6.80;99.90
28193;DHT22;15473;50.840;3.396;2023-02-20T00:29:19;6.80;99.90
28193;DHT22;15473;50.840;3.396;2023-02-20T00:31:55;6.80;99.90
28193;DHT22;15473;50.840;3.396;2023-02-20T00:34:31;6.80;99.90
28193;DHT22;15473;50.840;3.396;2023-02-20T00:37:07;6.80;99.90
28193;DHT22;15473;50.840;3.396;2023-02-20T00:39:36;6.80;99.90
28193;DHT22;15473;50.840;3.396;2023-02-20T00:42:05;6.80;99.90
28193;DHT22;15473;50.840;3.396;2023-02-20T00:44:34;6.80;99.90
28193;DHT22;15473;50.840;3.396;2023-02-20T00:47:04;6.80;99.90
28193;DHT22;15473;50.840;3.396;2023-02-20T00:49:40;6.70;99.90
28193;DHT22;15473;50.840;3.396;2023-02-20T00:52:10;6.80;99.90
28193;DHT22;15473;50.840;3.396;2023-02-20T00:54:46;6.70;99.90
28193;DHT22;15473;50.840;3.396;2023-02-20T00:57:21;6.70;99.90
28193;DHT22;15473;50.840;3.396;2023-02-20T00:59:51;6.80;99.90
28193;DHT22;15473;50.840;3.396;2023-02-20T01:02:27;6.80;99.90
28193;DHT22;15473;50.840;3.396;2023-02-20T01:05:02;6.80;99.90
28193;DHT22;15473;50.840;3.396;2023-02-20T01:07:32;6.80;99.90
28193;DHT22;15473;50.840;3.396;2023-02-20T01:10:08;6.80;99.90
28193;DHT22;15473;50.840;3.396;2023-02-20T01:12:38;6.70;99.90
28193;DHT22;15473;50.840;3.396;2023-02-20T01:15:08;6.70;99.90
28193;DHT22;15473;50.840;3.396;2023-02-20T01:17:39;6.60;99.90
28193;DHT22;15473;50.840;3.396;2023-02-20T01:20:09;6.70;99.90
28193;DHT22;15473;50.840;3.396;2023-02-20T01:22:40;6.60;99.90
28193;DHT22;15473;50.840;3.396;2023-02-20T01:25:10;6.60;99.90
28193;DHT22;15473;50.840;3.396;2023-02-20T01:27:43;6.60;99.90
28193;DHT22;15473;50.840;3.396;2023-02-20T01:30:12;6.50;99.90
28193;DHT22;15473;50.840;3.396;2023-02-20T01:32:44;6.50;99.90
28193;DHT22;15473;50.840;3.396;2023-02-20T01:35:20;6.40;99.90
28193;DHT22;15473;50.840;3.396;2023-02-20T01:38:02;6.40;99.90
28193;DHT22;15473;50.840;3.396;2023-02-20T01:40:34;6.40;99.90
28193;DHT22;15473;50.840;3.396;2023-02-20T01:43:10;6.40;99.90
28193;DHT22;15473;50.840;3.396;2023-02-20T01:45:46;6.40;99.90
28193;DHT22;15473;50.840;3.396;2023-02-20T01:48:23;6.30;99.90
28193;DHT22;15473;50.840;3.396;2023-02-20T01:50:55;6.30;99.90
28193;DHT22;15473;50.840;3.396;2023-02-20T01:53:26;6.30;99.90
28193;DHT22;15473;50.840;3.396;2023-02-20T01:56:02;6.30;99.90
28193;DHT22;15473;50.840;3.396;2023-02-20T01:58:40;6.20;99.90
28193;DHT22;15473;50.840;3.396;2023-02-20T02:01:05;6.20;99.90
28193;DHT22;15473;50.840;3.396;2023-02-20T02:03:42;6.20;99.90
28193;DHT22;15473;50.840;3.396;2023-02-20T02:06:12;6.20;99.90
28193;DHT22;15473;50.840;3.396;2023-02-20T02:08:42;6.10;99.90
28193;DHT22;15473;50.840;3.396;2023-02-20T02:11:19;6.10;99.90
28193;DHT22;15473;50.840;3.396;2023-02-20T02:13:48;6.10;99.90
28193;DHT22;15473;50.840;3.396;2023-02-20T02:16:29;6.00;99.90
28193;DHT22;15473;50.840;3.396;2023-02-20T02:19:06;6.00;99.90
28193;DHT22;15473;50.840;3.396;2023-02-20T02:24:22;6.00;99.90
28193;DHT22;15473;50.840;3.396;2023-02-20T02:27:02;6.00;99.90
28193;DHT22;15473;50.840;3.396;2023-02-20T02:40:03;6.00;99.90
28193;DHT22;15473;50.840;3.396;2023-02-20T02:42:46;6.00;99.90
28193;DHT22;15473;50.840;3.396;2023-02-20T02:48:05;6.10;99.90
28193;DHT22;15473;50.840;3.396;2023-02-20T02:50:39;6.10;99.90
28193;DHT22;15473;50.840;3.396;2023-02-20T02:53:14;6.20;99.90
28193;DHT22;15473;50.840;3.396;2023-02-20T02:55:50;6.20;99.90
28193;DHT22;15473;50.840;3.396;2023-02-20T02:58:20;6.30;99.90
28193;DHT22;15473;50.840;3.396;2023-02-20T03:00:57;6.30;99.90
28193;DHT22;15473;50.840;3.396;2023-02-20T03:03:34;6.40;99.90
28193;DHT22;15473;50.840;3.396;2023-02-20T03:06:12;6.40;99.90
28193;DHT22;15473;50.840;3.396;2023-02-20T03:08:42;6.50;99.90
28193;DHT22;15473;50.840;3.396;2023-02-20T03:11:19;6.50;99.90
28193;DHT22;15473;50.840;3.396;2023-02-20T03:13:56;6.60;99.90
28193;DHT22;15473;50.840;3.396;2023-02-20T03:16:49;6.60;99.90
28193;DHT22;15473;50.840;3.396;2023-02-20T03:19:28;6.60;99.90
28193;DHT22;15473;50.840;3.396;2023-02-20T03:22:01;6.70;99.90
28193;DHT22;15473;50.840;3.396;2023-02-20T03:24:37;6.70;99.90
28193;DHT22;15473;50.840;3.396;2023-02-20T03:29:56;6.70;99.90
28193;DHT22;15473;50.840;3.396;2023-02-20T03:32:26;6.80;99.90
28193;DHT22;15473;50.840;3.396;2023-02-20T03:35:21;6.80;99.90
28193;DHT22;15473;50.840;3.396;2023-02-20T03:38:10;6.80;99.90
28193;DHT22;15473;50.840;3.396;2023-02-20T03:40:59;6.80;99.90
28193;DHT22;15473;50.840;3.396;2023-02-20T03:43:47;6.90;99.90
28193;DHT22;15473;50.840;3.396;2023-02-20T03:46:18;6.90;99.90
28193;DHT22;15473;50.840;3.396;2023-02-20T03:48:58;6.90;99.90
28193;DHT22;15473;50.840;3.396;2023-02-20T03:51:27;6.90;99.90
28193;DHT22;15473;50.840;3.396;2023-02-20T03:53:58;6.90;99.90
28193;DHT22;15473;50.840;3.396;2023-02-20T03:56:36;6.90;99.90
28193;DHT22;15473;50.840;3.396;2023-02-20T03:59:17;6.90;99.90
28193;DHT22;15473;50.840;3.396;2023-02-20T04:01:42;6.90;99.90
28193;DHT22;15473;50.840;3.396;2023-02-20T04:04:24;6.90;99.90
28193;DHT22;15473;50.840;3.396;2023-02-20T04:06:53;6.90;99.90
28193;DHT22;15473;50.840;3.396;2023-02-20T04:09:24;7.00;99.90
28193;DHT22;15473;50.840;3.396;2023-02-20T04:12:12;7.00;99.90
28193;DHT22;15473;50.840;3.396;2023-02-20T04:14:39;7.00;99.90
28193;DHT22;15473;50.840;3.396;2023-02-20T04:17:10;7.00;99.90
28193;DHT22;15473;50.840;3.396;2023-02-20T04:19:43;7.00;99.90
28193;DHT22;15473;50.840;3.396;2023-02-20T04:22:14;7.00;99.90
28193;DHT22;15473;50.840;3.396;2023-02-20T04:24:56;7.00;99.90
28193;DHT22;15473;50.840;3.396;2023-02-20T04:27:27;7.00;99.90
28193;DHT22;15473;50.840;3.396;2023-02-20T04:30:03;7.00;99.90
28193;DHT22;15473;50.840;3.396;2023-02-20T04:32:33;7.10;99.90
28193;DHT22;15473;50.840;3.396;2023-02-20T04:35:09;7.10;99.90
28193;DHT22;15473;50.840;3.396;2023-02-20T04:37:39;7.10;99.90
28193;DHT22;15473;50.840;3.396;2023-02-20T04:40:22;7.10;99.90
28193;DHT22;15473;50.840;3.396;2023-02-20T04:42:51;7.10;99.90
28193;DHT22;15473;50.840;3.396;2023-02-20T04:45:27;7.10;99.90
28193;DHT22;15473;50.840;3.396;2023-02-20T04:47:58;7.10;99.90
28193;DHT22;15473;50.840;3.396;2023-02-20T04:50:33;7.10;99.90
28193;DHT22;15473;50.840;3.396;2023-02-20T04:53:09;7.10;99.90
28193;DHT22;15473;50.840;3.396;2023-02-20T04:55:44;7.10;99.90
28193;DHT22;15473;50.840;3.396;2023-02-20T04:58:14;7.10;99.90
28193;DHT22;15473;50.840;3.396;2023-02-20T05:00:44;7.10;99.90
28193;DHT22;15473;50.840;3.396;2023-02-20T05:03:20;7.10;99.90
28193;DHT22;15473;50.840;3.396;2023-02-20T05:05:55;7.10;99.90
28193;DHT22;15473;50.840;3.396;2023-02-20T05:08:31;7.10;99.90
28193;DHT22;15473;50.840;3.396;2023-02-20T05:11:06;7.10;99.90
28193;DHT22;15473;50.840;3.396;2023-02-20T05:13:36;7.10;99.90
28193;DHT22;15473;50.840;3.396;2023-02-20T05:16:12;7.10;99.90
28193;DHT22;15473;50.840;3.396;2023-02-20T05:18:41;7.10;99.90
28193;DHT22;15473;50.840;3.396;2023-02-20T05:21:13;7.10;99.90
28193;DHT22;15473;50.840;3.396;2023-02-20T05:24:00;7.20;99.90
28193;DHT22;15473;50.840;3.396;2023-02-20T05:26:29;7.20;99.90
28193;DHT22;15473;50.840;3.396;2023-02-20T05:29:00;7.20;99.90
28193;DHT22;15473;50.840;3.396;2023-02-20T05:31:37;7.20;99.90
28193;DHT22;15473;50.840;3.396;2023-02-20T05:34:07;7.20;99.90
28193;DHT22;15473;50.840;3.396;2023-02-20T05:36:40;7.20;99.90
28193;DHT22;15473;50.840;3.396;2023-02-20T05:39:11;7.20;99.90
28193;DHT22;15473;50.840;3.396;2023-02-20T05:41:53;7.20;99.90
28193;DHT22;15473;50.840;3.396;2023-02-20T05:44:28;7.30;99.90
28193;DHT22;15473;50.840;3.396;2023-02-20T05:46:59;7.30;99.90
28193;DHT22;15473;50.840;3.396;2023-02-20T05:49:35;7.30;99.90
28193;DHT22;15473;50.840;3.396;2023-02-20T05:52:11;7.30;99.90
28193;DHT22;15473;50.840;3.396;2023-02-20T05:54:46;7.30;99.90
28193;DHT22;15473;50.840;3.396;2023-02-20T05:57:16;7.30;99.90
28193;DHT22;15473;50.840;3.396;2023-02-20T05:59:45;7.30;99.90
28193;DHT22;15473;50.840;3.396;2023-02-20T06:02:21;7.30;99.90
28193;DHT22;15473;50.840;3.396;2023-02-20T06:04:50;7.30;99.90
28193;DHT22;15473;50.840;3.396;2023-02-20T06:07:23;7.30;99.90
28193;DHT22;15473;50.840;3.396;2023-02-20T06:09:58;7.30;99.90
28193;DHT22;15473;50.840;3.396;2023-02-20T06:12:34;7.30;99.90
28193;DHT22;15473;50.840;3.396;2023-02-20T06:15:09;7.30;99.90
28193;DHT22;15473;50.840;3.396;2023-02-20T06:17:45;7.30;99.90
28193;DHT22;15473;50.840;3.396;2023-02-20T06:20:20;7.40;99.90
28193;DHT22;15473;50.840;3.396;2023-02-20T06:22:56;7.30;99.90
28193;DHT22;15473;50.840;3.396;2023-02-20T06:25:31;7.30;99.90
28193;DHT22;15473;50.840;3.396;2023-02-20T06:28:07;7.40;99.90
28193;DHT22;15473;50.840;3.396;2023-02-20T06:30:40;7.40;99.90
28193;DHT22;15473;50.840;3.396;2023-02-20T06:33:09;7.40;99.90
28193;DHT22;15473;50.840;3.396;2023-02-20T06:35:48;7.40;99.90
28193;DHT22;15473;50.840;3.396;2023-02-20T06:38:17;7.40;99.90
28193;DHT22;15473;50.840;3.396;2023-02-20T06:40:53;7.40;99.90
28193;DHT22;15473;50.840;3.396;2023-02-20T06:43:29;7.40;99.90
28193;DHT22;15473;50.840;3.396;2023-02-20T06:45:59;7.40;99.90
28193;DHT22;15473;50.840;3.396;2023-02-20T06:48:28;7.40;99.90
28193;DHT22;15473;50.840;3.396;2023-02-20T06:51:05;7.40;99.90
28193;DHT22;15473;50.840;3.396;2023-02-20T06:53:40;7.40;99.90
28193;DHT22;15473;50.840;3.396;2023-02-20T06:56:10;7.50;99.90
28193;DHT22;15473;50.840;3.396;2023-02-20T06:58:39;7.40;99.90
28193;DHT22;15473;50.840;3.396;2023-02-20T07:01:16;7.40;99.90
28193;DHT22;15473;50.840;3.396;2023-02-20T07:03:52;7.50;99.90
28193;DHT22;15473;50.840;3.396;2023-02-20T07:06:25;7.50;99.90
28193;DHT22;15473;50.840;3.396;2023-02-20T07:09:00;7.50;99.90
28193;DHT22;15473;50.840;3.396;2023-02-20T07:11:33;7.50;99.90
28193;DHT22;15473;50.840;3.396;2023-02-20T07:14:09;7.50;99.90
28193;DHT22;15473;50.840;3.396;2023-02-20T07:16:44;7.60;99.90
28193;DHT22;15473;50.840;3.396;2023-02-20T07:19:15;7.60;99.90
28193;DHT22;15473;50.840;3.396;2023-02-20T07:21:45;7.60;99.90
28193;DHT22;15473;50.840;3.396;2023-02-20T07:24:21;7.60;99.90
28193;DHT22;15473;50.840;3.396;2023-02-20T07:26:57;7.60;99.90
28193;DHT22;15473;50.840;3.396;2023-02-20T07:29:26;7.70;99.90
28193;DHT22;15473;50.840;3.396;2023-02-20T07:31:57;7.70;99.90
28193;DHT22;15473;50.840;3.396;2023-02-20T07:34:26;7.70;99.90
28193;DHT22;15473;50.840;3.396;2023-02-20T07:36:55;7.80;99.90
28193;DHT22;15473;50.840;3.396;2023-02-20T07:39:28;7.80;99.90
28193;DHT22;15473;50.840;3.396;2023-02-20T07:41:57;7.80;99.90
28193;DHT22;15473;50.840;3.396;2023-02-20T07:44:37;7.90;99.90
28193;DHT22;15473;50.840;3.396;2023-02-20T07:47:12;7.90;99.90
28193;DHT22;15473;50.840;3.396;2023-02-20T07:49:47;8.00;99.90
28193;DHT22;15473;50.840;3.396;2023-02-20T07:52:23;8.10;99.90
28193;DHT22;15473;50.840;3.396;2023-02-20T07:54:59;8.10;99.90
28193;DHT22;15473;50.840;3.396;2023-02-20T07:57:35;8.10;99.90
28193;DHT22;15473;50.840;3.396;2023-02-20T08:00:15;8.20;99.90
28193;DHT22;15473;50.840;3.396;2023-02-20T08:02:51;8.20;99.90
28193;DHT22;15473;50.840;3.396;2023-02-20T08:05:26;8.30;99.90
28193;DHT22;15473;50.840;3.396;2023-02-20T08:08:02;8.30;99.90
28193;DHT22;15473;50.840;3.396;2023-02-20T08:10:31;8.40;99.90
28193;DHT22;15473;50.840;3.396;2023-02-20T08:13:07;8.40;99.90
28193;DHT22;15473;50.840;3.396;2023-02-20T08:15:42;8.50;99.90
28193;DHT22;15473;50.840;3.396;2023-02-20T08:18:22;8.50;99.90
28193;DHT22;15473;50.840;3.396;2023-02-20T08:20:58;8.60;99.90
28193;DHT22;15473;50.840;3.396;2023-02-20T08:23:28;8.70;99.90
28193;DHT22;15473;50.840;3.396;2023-02-20T08:25:58;8.70;99.90
28193;DHT22;15473;50.840;3.396;2023-02-20T08:28:33;8.70;99.90
28193;DHT22;15473;50.840;3.396;2023-02-20T08:31:03;8.80;99.90
28193;DHT22;15473;50.840;3.396;2023-02-20T08:33:32;8.80;99.90
28193;DHT22;15473;50.840;3.396;2023-02-20T08:36:14;8.90;99.90
28193;DHT22;15473;50.840;3.396;2023-02-20T08:38:46;9.00;99.90
28193;DHT22;15473;50.840;3.396;2023-02-20T08:41:16;9.00;99.90
28193;DHT22;15473;50.840;3.396;2023-02-20T08:43:46;9.10;99.90
28193;DHT22;15473;50.840;3.396;2023-02-20T08:46:28;9.10;99.90
28193;DHT22;15473;50.840;3.396;2023-02-20T08:49:03;9.10;99.90
28193;DHT22;15473;50.840;3.396;2023-02-20T08:51:40;9.20;99.90
28193;DHT22;15473;50.840;3.396;2023-02-20T08:54:09;9.20;99.90
28193;DHT22;15473;50.840;3.396;2023-02-20T08:56:40;9.30;99.90
28193;DHT22;15473;50.840;3.396;2023-02-20T08:59:16;9.40;99.90
28193;DHT22;15473;50.840;3.396;2023-02-20T09:01:47;9.40;99.90
28193;DHT22;15473;50.840;3.396;2023-02-20T09:04:22;9.50;99.90
28193;DHT22;15473;50.840;3.396;2023-02-20T09:06:58;9.50;99.90
28193;DHT22;15473;50.840;3.396;2023-02-20T09:09:33;9.60;99.90
28193;DHT22;15473;50.840;3.396;2023-02-20T09:12:09;9.60;99.90
28193;DHT22;15473;50.840;3.396;2023-02-20T09:14:45;9.70;99.90
28193;DHT22;15473;50.840;3.396;2023-02-20T09:17:20;9.70;99.90
28193;DHT22;15473;50.840;3.396;2023-02-20T09:19:49;9.70;99.90
28193;DHT22;15473;50.840;3.396;2023-02-20T09:22:22;9.80;99.90
28193;DHT22;15473;50.840;3.396;2023-02-20T09:24:58;9.80;99.90
28193;DHT22;15473;50.840;3.396;2023-02-20T09:27:34;9.90;99.90
28193;DHT22;15473;50.840;3.396;2023-02-20T09:30:05;9.90;99.90
28193;DHT22;15473;50.840;3.396;2023-02-20T09:32:41;9.90;99.90
28193;DHT22;15473;50.840;3.396;2023-02-20T09:35:12;9.90;99.90
28193;DHT22;15473;50.840;3.396;2023-02-20T09:37:47;10.00;99.90
28193;DHT22;15473;50.840;3.396;2023-02-20T09:40:25;10.00;99.90
28193;DHT22;15473;50.840;3.396;2023-02-20T09:43:04;10.10;99.90
28193;DHT22;15473;50.840;3.396;2023-02-20T09:45:39;10.10;99.90
28193;DHT22;15473;50.840;3.396;2023-02-20T09:48:18;10.20;99.90
28193;DHT22;15473;50.840;3.396;2023-02-20T09:51:01;10.30;99.90
28193;DHT22;15473;50.840;3.396;2023-02-20T09:53:45;10.40;99.90
28193;DHT22;15473;50.840;3.396;2023-02-20T09:56:16;10.50;99.90
28193;DHT22;15473;50.840;3.396;2023-02-20T09:59:16;10.60;99.90
28193;DHT22;15473;50.840;3.396;2023-02-20T10:01:25;10.70;99.90
28193;DHT22;15473;50.840;3.396;2023-02-20T10:03:55;10.80;99.90
28193;DHT22;15473;50.840;3.396;2023-02-20T10:06:32;10.90;99.90
28193;DHT22;15473;50.840;3.396;2023-02-20T10:09:09;11.00;99.90
28193;DHT22;15473;50.840;3.396;2023-02-20T10:11:48;11.10;99.90
28193;DHT22;15473;50.840;3.396;2023-02-20T10:14:42;11.20;99.90
28193;DHT22;15473;50.840;3.396;2023-02-20T10:17:42;11.30;99.90
28193;DHT22;15473;50.840;3.396;2023-02-20T10:22:38;11.30;99.90
28193;DHT22;15473;50.840;3.396;2023-02-20T10:25:21;11.30;99.90
28193;DHT22;15473;50.840;3.396;2023-02-20T10:35:55;11.40;99.90
28193;DHT22;15473;50.840;3.396;2023-02-20T10:38:25;11.40;99.90
28193;DHT22;15473;50.840;3.396;2023-02-20T10:41:01;11.40;99.90
28193;DHT22;15473;50.840;3.396;2023-02-20T10:43:49;11.30;99.90
28193;DHT22;15473;50.840;3.396;2023-02-20T10:48:56;11.20;99.90
28193;DHT22;15473;50.840;3.396;2023-02-20T10:51:35;11.30;99.90
28193;DHT22;15473;50.840;3.396;2023-02-20T10:54:07;11.30;99.90
28193;DHT22;15473;50.840;3.396;2023-02-20T10:56:51;11.30;99.90
28193;DHT22;15473;50.840;3.396;2023-02-20T10:59:22;11.30;99.90
28193;DHT22;15473;50.840;3.396;2023-02-20T11:01:57;11.30;99.90
28193;DHT22;15473;50.840;3.396;2023-02-20T11:04:33;11.30;99.90
28193;DHT22;15473;50.840;3.396;2023-02-20T11:07:09;11.30;99.90
28193;DHT22;15473;50.840;3.396;2023-02-20T11:09:46;11.30;99.90
28193;DHT22;15473;50.840;3.396;2023-02-20T11:12:40;11.30;99.90
28193;DHT22;15473;50.840;3.396;2023-02-20T11:14:49;11.30;99.90
28193;DHT22;15473;50.840;3.396;2023-02-20T11:17:26;11.20;99.90
28193;DHT22;15473;50.840;3.396;2023-02-20T11:20:02;11.30;99.90
28193;DHT22;15473;50.840;3.396;2023-02-20T11:22:46;11.20;99.90
28193;DHT22;15473;50.840;3.396;2023-02-20T11:25:20;11.20;99.90
28193;DHT22;15473;50.840;3.396;2023-02-20T11:27:55;11.20;99.90
28193;DHT22;15473;50.840;3.396;2023-02-20T11:30:39;11.30;99.90
28193;DHT22;15473;50.840;3.396;2023-02-20T11:33:20;11.30;99.90
28193;DHT22;15473;50.840;3.396;2023-02-20T11:35:54;11.30;99.90
28193;DHT22;15473;50.840;3.396;2023-02-20T11:38:30;11.30;99.90
28193;DHT22;15473;50.840;3.396;2023-02-20T11:41:23;11.40;99.90
28193;DHT22;15473;50.840;3.396;2023-02-20T11:44:04;11.50;99.90
28193;DHT22;15473;50.840;3.396;2023-02-20T11:46:42;11.50;99.90
28193;DHT22;15473;50.840;3.396;2023-02-20T11:49:24;11.60;99.90
28193;DHT22;15473;50.840;3.396;2023-02-20T11:52:06;11.60;99.90
28193;DHT22;15473;50.840;3.396;2023-02-20T11:54:42;11.60;99.90
28193;DHT22;15473;50.840;3.396;2023-02-20T11:57:24;11.70;99.90
28193;DHT22;15473;50.840;3.396;2023-02-20T12:05:38;11.80;99.90
28193;DHT22;15473;50.840;3.396;2023-02-20T12:08:32;11.80;99.90
28193;DHT22;15473;50.840;3.396;2023-02-20T12:11:07;11.90;99.90
28193;DHT22;15473;50.840;3.396;2023-02-20T12:13:42;12.00;99.90
28193;DHT22;15473;50.840;3.396;2023-02-20T12:19:17;12.10;99.90
28193;DHT22;15473;50.840;3.396;2023-02-20T12:21:59;12.20;99.90
28193;DHT22;15473;50.840;3.396;2023-02-20T12:24:36;12.20;99.90
28193;DHT22;15473;50.840;3.396;2023-02-20T12:27:08;12.30;99.90
28193;DHT22;15473;50.840;3.396;2023-02-20T12:35:12;12.60;99.90
28193;DHT22;15473;50.840;3.396;2023-02-20T12:40:32;13.00;99.90
28193;DHT22;15473;50.840;3.396;2023-02-20T12:46:12;13.20;99.90
28193;DHT22;15473;50.840;3.396;2023-02-20T12:51:36;13.30;99.90
28193;DHT22;15473;50.840;3.396;2023-02-20T12:54:25;13.20;99.90
28193;DHT22;15473;50.840;3.396;2023-02-20T12:56:57;13.20;99.90
28193;DHT22;15473;50.840;3.396;2023-02-20T13:00:14;13.10;99.90
28193;DHT22;15473;50.840;3.396;2023-02-20T13:02:17;13.10;99.90
28193;DHT22;15473;50.840;3.396;2023-02-20T13:04:52;13.00;99.90
28193;DHT22;15473;50.840;3.396;2023-02-20T13:10:32;12.80;99.90
28193;DHT22;15473;50.840;3.396;2023-02-20T13:13:02;12.80;99.90
28193;DHT22;15473;50.840;3.396;2023-02-20T13:18:24;12.60;99.90
28193;DHT22;15473;50.840;3.396;2023-02-20T13:21:09;12.60;99.90
28193;DHT22;15473;50.840;3.396;2023-02-20T13:23:46;12.50;99.90
28193;DHT22;15473;50.840;3.396;2023-02-20T13:28:56;12.50;99.90
28193;DHT22;15473;50.840;3.396;2023-02-20T13:36:42;12.50;99.90
28193;DHT22;15473;50.840;3.396;2023-02-20T13:44:38;12.30;99.90
28193;DHT22;15473;50.840;3.396;2023-02-20T13:52:30;12.10;99.90
28193;DHT22;15473;50.840;3.396;2023-02-20T13:55:17;12.00;99.90
28193;DHT22;15473;50.840;3.396;2023-02-20T13:57:56;12.00;99.90
28193;DHT22;15473;50.840;3.396;2023-02-20T14:00:40;11.90;99.90
28193;DHT22;15473;50.840;3.396;2023-02-20T14:03:17;11.80;99.90
28193;DHT22;15473;50.840;3.396;2023-02-20T14:06:10;11.70;99.90
28193;DHT22;15473;50.840;3.396;2023-02-20T14:08:47;11.70;99.90
28193;DHT22;15473;50.840;3.396;2023-02-20T14:11:23;11.70;99.90
28193;DHT22;15473;50.840;3.396;2023-02-20T14:13:54;11.70;99.90
28193;DHT22;15473;50.840;3.396;2023-02-20T14:16:26;11.60;99.90
28193;DHT22;15473;50.840;3.396;2023-02-20T14:19:05;11.60;99.90
28193;DHT22;15473;50.840;3.396;2023-02-20T14:21:37;11.60;99.90
28193;DHT22;15473;50.840;3.396;2023-02-20T14:24:33;11.60;99.90
28193;DHT22;15473;50.840;3.396;2023-02-20T14:26:47;11.60;99.90
28193;DHT22;15473;50.840;3.396;2023-02-20T14:32:01;11.60;99.90
28193;DHT22;15473;50.840;3.396;2023-02-20T14:42:17;11.50;99.90
28193;DHT22;15473;50.840;3.396;2023-02-20T14:44:59;11.50;99.90
28193;DHT22;15473;50.840;3.396;2023-02-20T14:47:30;11.40;99.90
28193;DHT22;15473;50.840;3.396;2023-02-20T14:50:07;11.40;99.90
28193;DHT22;15473;50.840;3.396;2023-02-20T14:52:43;11.40;99.90
28193;DHT22;15473;50.840;3.396;2023-02-20T14:55:20;11.40;99.90
28193;DHT22;15473;50.840;3.396;2023-02-20T14:57:53;11.40;99.90
28193;DHT22;15473;50.840;3.396;2023-02-20T15:00:33;11.30;99.90
28193;DHT22;15473;50.840;3.396;2023-02-20T15:03:10;11.30;99.90
28193;DHT22;15473;50.840;3.396;2023-02-20T15:05:47;11.30;99.90
28193;DHT22;15473;50.840;3.396;2023-02-20T15:10:52;11.20;99.90
28193;DHT22;15473;50.840;3.396;2023-02-20T15:13:33;11.20;99.90
28193;DHT22;15473;50.840;3.396;2023-02-20T15:16:12;11.10;99.90
28193;DHT22;15473;50.840;3.396;2023-02-20T15:18:42;11.10;99.90
28193;DHT22;15473;50.840;3.396;2023-02-20T15:21:11;11.00;99.90
28193;DHT22;15473;50.840;3.396;2023-02-20T15:23:42;11.00;99.90
28193;DHT22;15473;50.840;3.396;2023-02-20T15:26:25;11.00;99.90
28193;DHT22;15473;50.840;3.396;2023-02-20T15:34:34;10.80;99.90
28193;DHT22;15473;50.840;3.396;2023-02-20T15:37:04;10.80;99.90
28193;DHT22;15473;50.840;3.396;2023-02-20T15:39:39;10.90;99.90
28193;DHT22;15473;50.840;3.396;2023-02-20T15:42:10;10.80;99.90
28193;DHT22;15473;50.840;3.396;2023-02-20T15:44:46;10.80;99.90
28193;DHT22;15473;50.840;3.396;2023-02-20T15:47:17;10.80;99.90
28193;DHT22;15473;50.840;3.396;2023-02-20T15:49:50;10.70;99.90
28193;DHT22;15473;50.840;3.396;2023-02-20T15:52:19;10.70;99.90
28193;DHT22;15473;50.840;3.396;2023-02-20T15:54:54;10.70;99.90
28193;DHT22;15473;50.840;3.396;2023-02-20T15:57:32;10.70;99.90
28193;DHT22;15473;50.840;3.396;2023-02-20T16:00:23;10.70;99.90
28193;DHT22;15473;50.840;3.396;2023-02-20T16:02:50;10.60;99.90
28193;DHT22;15473;50.840;3.396;2023-02-20T16:05:26;10.70;99.90
28193;DHT22;15473;50.840;3.396;2023-02-20T16:08:02;10.60;99.90
28193;DHT22;15473;50.840;3.396;2023-02-20T16:10:32;10.60;99.90
28193;DHT22;15473;50.840;3.396;2023-02-20T16:13:15;10.50;99.90
28193;DHT22;15473;50.840;3.396;2023-02-20T16:15:45;10.50;99.90
28193;DHT22;15473;50.840;3.396;2023-02-20T16:18:21;10.40;99.90
28193;DHT22;15473;50.840;3.396;2023-02-20T16:20:51;10.40;99.90
28193;DHT22;15473;50.840;3.396;2023-02-20T16:23:21;10.30;99.90
28193;DHT22;15473;50.840;3.396;2023-02-20T16:25:57;10.30;99.90
28193;DHT22;15473;50.840;3.396;2023-02-20T16:28:33;10.20;99.90
28193;DHT22;15473;50.840;3.396;2023-02-20T16:31:12;10.20;99.90
28193;DHT22;15473;50.840;3.396;2023-02-20T16:33:48;10.10;99.90
28193;DHT22;15473;50.840;3.396;2023-02-20T16:36:23;10.00;99.90
28193;DHT22;15473;50.840;3.396;2023-02-20T16:38:56;10.00;99.90
28193;DHT22;15473;50.840;3.396;2023-02-20T16:41:32;10.00;99.90
28193;DHT22;15473;50.840;3.396;2023-02-20T16:44:13;9.90;99.90
28193;DHT22;15473;50.840;3.396;2023-02-20T16:46:45;9.90;99.90
28193;DHT22;15473;50.840;3.396;2023-02-20T16:49:16;9.80;99.90
28193;DHT22;15473;50.840;3.396;2023-02-20T16:51:53;9.80;99.90
28193;DHT22;15473;50.840;3.396;2023-02-20T16:54:35;9.70;99.90
28193;DHT22;15473;50.840;3.396;2023-02-20T16:57:10;9.70;99.90
28193;DHT22;15473;50.840;3.396;2023-02-20T16:59:40;9.70;99.90
28193;DHT22;15473;50.840;3.396;2023-02-20T17:02:16;9.60;99.90
28193;DHT22;15473;50.840;3.396;2023-02-20T17:04:47;9.60;99.90
28193;DHT22;15473;50.840;3.396;2023-02-20T17:07:16;9.50;99.90
28193;DHT22;15473;50.840;3.396;2023-02-20T17:09:52;9.50;99.90
28193;DHT22;15473;50.840;3.396;2023-02-20T17:12:29;9.50;99.90
28193;DHT22;15473;50.840;3.396;2023-02-20T17:15:07;9.40;99.90
28193;DHT22;15473;50.840;3.396;2023-02-20T17:17:38;9.40;99.90
28193;DHT22;15473;50.840;3.396;2023-02-20T17:20:11;9.40;99.90
28193;DHT22;15473;50.840;3.396;2023-02-20T17:22:48;9.30;99.90
28193;DHT22;15473;50.840;3.396;2023-02-20T17:25:22;9.30;99.90
28193;DHT22;15473;50.840;3.396;2023-02-20T17:27:59;9.30;99.90
28193;DHT22;15473;50.840;3.396;2023-02-20T17:30:30;9.20;99.90
28193;DHT22;15473;50.840;3.396;2023-02-20T17:33:01;9.20;99.90
28193;DHT22;15473;50.840;3.396;2023-02-20T17:35:36;9.20;99.90
28193;DHT22;15473;50.840;3.396;2023-02-20T17:38:05;9.20;99.90
28193;DHT22;15473;50.840;3.396;2023-02-20T17:40:42;9.10;99.90
28193;DHT22;15473;50.840;3.396;2023-02-20T17:43:17;9.10;99.90
28193;DHT22;15473;50.840;3.396;2023-02-20T17:45:53;9.10;99.90
28193;DHT22;15473;50.840;3.396;2023-02-20T17:48:29;9.10;99.90
28193;DHT22;15473;50.840;3.396;2023-02-20T17:51:00;9.00;99.90
28193;DHT22;15473;50.840;3.396;2023-02-20T17:53:36;9.00;99.90
28193;DHT22;15473;50.840;3.396;2023-02-20T17:56:13;9.00;99.90
28193;DHT22;15473;50.840;3.396;2023-02-20T17:58:55;9.00;99.90
28193;DHT22;15473;50.840;3.396;2023-02-20T18:01:24;9.00;99.90
28193;DHT22;15473;50.840;3.396;2023-02-20T18:03:54;9.00;99.90
28193;DHT22;15473;50.840;3.396;2023-02-20T18:06:24;8.90;99.90